Time;durP1;ratioP1;P1;durP2;ratioP2;P2;SDS_P1;SDS_P2;PMS_P1;PMS_P2;Temp;Humidity;BMP_temperature;BMP_pressure;BME280_temperature;BME280_humidity;BME280_pressure;Samples;Min_cycle;Max_cycle;Signal;HPM_P1;HPM_P2
2021/12/25 00:01:42;;;;;;;;;;;12.10;64.00;;;;;;5117143;28;19956;-66
2021/12/25 00:04:08;;;;;;;;;;;12.10;64.00;;;;;;5117084;28;19907;-66
2021/12/25 00:06:34;;;;;;;;;;;12.10;64.00;;;;;;5116967;28;19961;-66
2021/12/25 00:08:59;;;;;;;;;;;12.10;64.00;;;;;;5116908;28;19904;-66
2021/12/25 00:11:25;;;;;;;;;;;12.10;64.00;;;;;;5116855;28;20403;-66
2021/12/25 00:13:51;;;;;;;;;;;12.10;63.90;;;;;;5116798;28;19930;-66
2021/12/25 00:16:16;;;;;;;;;;;12.00;63.80;;;;;;5116727;28;19930;-66
2021/12/25 00:18:42;;;;;;;;;;;12.00;63.70;;;;;;5116809;28;19911;-66
2021/12/25 00:21:08;;;;;;;;;;;12.00;63.80;;;;;;5096399;28;19912;-66
2021/12/25 00:23:34;;;;;;;;;;;12.00;63.90;;;;;;5096381;28;19908;-66
2021/12/25 00:26:09;;;;;;;;;;;12.00;63.90;;;;;;5095292;28;20362;-64
2021/12/25 00:28:51;;;;;;;;;;;12.00;64.00;;;;;;5096286;28;19908;-65
2021/12/25 00:36:09;;;;;;;;;;;12.00;64.00;;;;;;5096334;28;19923;-65
2021/12/25 00:38:37;;;;;;;;;;;11.90;64.00;;;;;;5096028;28;19908;-65
2021/12/25 00:41:05;;;;;;;;;;;11.90;64.00;;;;;;5096115;28;20471;-65
2021/12/25 00:43:31;;;;;;;;;;;11.90;64.10;;;;;;5095976;28;19908;-65
2021/12/25 00:45:57;;;;;;;;;;;11.90;64.20;;;;;;5095871;28;20349;-65
2021/12/25 00:48:22;;;;;;;;;;;11.90;64.20;;;;;;5095892;28;19908;-67
2021/12/25 00:50:48;;;;;;;;;;;11.90;64.20;;;;;;5095688;28;19951;-66
2021/12/25 00:53:13;;;;;;;;;;;11.90;64.10;;;;;;5095811;28;20007;-66
2021/12/25 00:55:39;;;;;;;;;;;11.90;64.20;;;;;;5095792;28;19904;-65
2021/12/25 00:58:05;;;;;;;;;;;11.90;64.20;;;;;;5095739;28;19912;-65
2021/12/25 01:00:30;;;;;;;;;;;11.90;64.30;;;;;;5095550;28;20262;-66
2021/12/25 01:02:56;;;;;;;;;;;11.90;64.30;;;;;;5095079;28;19909;-65
2021/12/25 01:05:22;;;;;;;;;;;11.90;64.30;;;;;;5094205;28;19954;-66
2021/12/25 01:07:47;;;;;;;;;;;11.90;64.30;;;;;;5095470;28;19911;-66
2021/12/25 01:10:17;;;;;;;;;;;11.90;64.30;;;;;;5095314;28;19979;-66
2021/12/25 01:24:41;;;;;;;;;;;12.00;64.50;;;;;;5098366;28;20340;-66
2021/12/25 01:32:55;;;;;;;;;;;12.00;64.30;;;;;;5115668;28;19915;-66
2021/12/25 01:48:14;;;;;;;;;;;12.10;64.50;;;;;;5115522;28;19915;-66
2021/12/25 01:50:40;;;;;;;;;;;12.10;64.40;;;;;;5114996;28;19915;-64
2021/12/25 01:53:06;;;;;;;;;;;12.10;64.40;;;;;;5114927;28;19916;-64
2021/12/25 01:55:31;;;;;;;;;;;12.10;64.30;;;;;;5114951;28;19914;-64
2021/12/25 01:57:59;;;;;;;;;;;12.10;64.30;;;;;;5114881;28;20352;-66
2021/12/25 02:00:30;;;;;;;;;;;12.10;64.30;;;;;;5114874;28;19915;-65
2021/12/25 02:02:55;;;;;;;;;;;12.10;64.20;;;;;;5114703;28;19912;-64
2021/12/25 02:05:21;;;;;;;;;;;12.10;64.20;;;;;;5114630;28;19908;-64
2021/12/25 02:07:47;;;;;;;;;;;12.10;64.20;;;;;;5114600;28;19957;-65
2021/12/25 02:10:14;;;;;;;;;;;12.00;64.20;;;;;;5114629;27;19908;-64
2021/12/25 02:12:40;;;;;;;;;;;12.10;64.30;;;;;;5114510;28;20357;-64
2021/12/25 02:15:11;;;;;;;;;;;12.10;64.30;;;;;;5113396;28;20370;-64
2021/12/25 02:20:36;;;;;;;;;;;12.10;64.30;;;;;;5114415;28;20254;-64
2021/12/25 02:23:10;;;;;;;;;;;12.10;64.30;;;;;;5114288;28;19946;-64
2021/12/25 02:25:36;;;;;;;;;;;12.10;64.10;;;;;;5114299;28;19908;-67
2021/12/25 02:28:03;;;;;;;;;;;12.10;64.10;;;;;;5114219;28;19908;-64
2021/12/25 02:30:29;;;;;;;;;;;12.10;64.10;;;;;;5114039;28;20002;-65
2021/12/25 02:32:58;;;;;;;;;;;12.10;64.10;;;;;;5114589;28;20339;-65
2021/12/25 02:35:24;;;;;;;;;;;12.10;64.20;;;;;;5114428;28;19908;-65
2021/12/25 02:37:50;;;;;;;;;;;12.10;64.20;;;;;;5114450;28;19908;-65
2021/12/25 02:40:15;;;;;;;;;;;12.10;64.30;;;;;;5112804;28;20388;-65
2021/12/25 02:42:41;;;;;;;;;;;12.10;64.20;;;;;;5114053;28;19908;-65
2021/12/25 02:45:09;;;;;;;;;;;12.10;64.20;;;;;;5114009;28;19908;-64
2021/12/25 02:47:36;;;;;;;;;;;12.00;64.20;;;;;;5113953;28;19908;-65
2021/12/25 02:50:02;;;;;;;;;;;12.10;64.20;;;;;;5113965;28;19908;-65
2021/12/25 02:52:27;;;;;;;;;;;12.10;64.20;;;;;;5113835;28;19918;-65
2021/12/25 02:54:53;;;;;;;;;;;12.10;64.10;;;;;;5113907;28;19915;-65
2021/12/25 02:57:18;;;;;;;;;;;12.10;64.10;;;;;;5113786;28;19908;-65
2021/12/25 02:59:44;;;;;;;;;;;12.10;64.20;;;;;;5113790;28;20322;-64
2021/12/25 03:02:11;;;;;;;;;;;12.10;64.10;;;;;;5113752;28;19961;-65
2021/12/25 03:04:37;;;;;;;;;;;12.10;64.20;;;;;;5113658;28;19907;-65
2021/12/25 03:07:03;;;;;;;;;;;12.10;64.20;;;;;;5113580;28;19908;-64
2021/12/25 03:09:28;;;;;;;;;;;12.10;64.20;;;;;;5113666;28;19919;-65
2021/12/25 03:11:54;;;;;;;;;;;12.10;64.10;;;;;;5113549;28;19919;-64
2021/12/25 03:14:37;;;;;;;;;;;12.20;64.20;;;;;;5113534;28;20392;-65
2021/12/25 03:17:03;;;;;;;;;;;12.10;64.20;;;;;;5113474;28;19969;-65
2021/12/25 03:19:33;;;;;;;;;;;12.10;64.20;;;;;;5113600;28;19907;-65
2021/12/25 03:22:00;;;;;;;;;;;12.20;64.30;;;;;;5113508;28;19958;-65
2021/12/25 03:24:29;;;;;;;;;;;12.20;64.30;;;;;;5113529;28;20448;-65
2021/12/25 03:26:56;;;;;;;;;;;12.20;64.30;;;;;;5116998;28;19908;-65
2021/12/25 03:29:23;;;;;;;;;;;12.20;64.30;;;;;;5117747;28;20384;-65
2021/12/25 03:31:49;;;;;;;;;;;12.20;64.20;;;;;;5117630;28;20014;-65
2021/12/25 03:34:15;;;;;;;;;;;12.10;64.10;;;;;;5117730;28;19908;-64
2021/12/25 03:36:40;;;;;;;;;;;12.10;64.10;;;;;;5117622;28;20387;-65
2021/12/25 03:39:06;;;;;;;;;;;12.10;64.10;;;;;;5117566;28;19907;-65
2021/12/25 03:41:32;;;;;;;;;;;12.20;64.20;;;;;;5116259;28;19932;-65
2021/12/25 03:43:58;;;;;;;;;;;12.10;64.10;;;;;;5117482;28;19951;-65
2021/12/25 03:46:24;;;;;;;;;;;12.10;64.20;;;;;;5117534;28;20276;-65
2021/12/25 03:59:28;;;;;;;;;;;12.00;64.10;;;;;;5117258;28;19960;-64
2021/12/25 04:01:59;;;;;;;;;;;12.00;64.00;;;;;;5117198;28;19998;-65
2021/12/25 04:04:33;;;;;;;;;;;12.00;64.20;;;;;;5117154;28;20265;-65
2021/12/25 04:07:05;;;;;;;;;;;12.00;64.20;;;;;;5117066;28;20049;-65
2021/12/25 04:09:31;;;;;;;;;;;12.00;64.20;;;;;;5117105;28;19912;-65
2021/12/25 04:12:01;;;;;;;;;;;12.00;64.30;;;;;;5116883;28;19916;-65
2021/12/25 04:14:27;;;;;;;;;;;12.00;64.20;;;;;;5116800;28;20277;-64
2021/12/25 04:16:53;;;;;;;;;;;12.00;64.20;;;;;;5116711;28;19926;-65
2021/12/25 04:19:18;;;;;;;;;;;12.00;64.20;;;;;;5116928;28;19907;-65
2021/12/25 04:21:55;;;;;;;;;;;12.00;64.10;;;;;;5116794;28;19996;-65
2021/12/25 04:24:21;;;;;;;;;;;12.00;64.10;;;;;;5116774;28;19914;-65
2021/12/25 04:26:48;;;;;;;;;;;12.00;64.10;;;;;;5116655;27;19903;-66
2021/12/25 04:29:38;;;;;;;;;;;12.00;64.20;;;;;;5116635;28;19908;-64
2021/12/25 04:42:58;;;;;;;;;;;12.00;64.30;;;;;;5116407;28;20390;-65
2021/12/25 05:04:07;;;;;;;;;;;11.80;64.40;;;;;;5116304;28;19960;-65
2021/12/25 05:06:32;;;;;;;;;;;11.80;64.50;;;;;;5115910;28;20365;-65
2021/12/25 05:08:58;;;;;;;;;;;11.80;64.60;;;;;;5115915;28;19915;-65
2021/12/25 05:11:23;;;;;;;;;;;11.70;64.70;;;;;;5115720;28;19934;-65
2021/12/25 05:13:50;;;;;;;;;;;11.70;64.70;;;;;;5115600;28;19908;-65
2021/12/25 05:16:16;;;;;;;;;;;11.70;64.70;;;;;;5114211;28;19920;-64
2021/12/25 05:18:42;;;;;;;;;;;11.60;64.70;;;;;;5114476;28;19927;-64
2021/12/25 05:21:08;;;;;;;;;;;11.60;64.70;;;;;;5114424;28;19915;-65
2021/12/25 05:23:34;;;;;;;;;;;11.60;64.70;;;;;;5115621;28;20281;-65
2021/12/25 05:26:00;;;;;;;;;;;11.60;64.70;;;;;;5115820;28;20428;-65
2021/12/25 05:28:27;;;;;;;;;;;11.60;64.80;;;;;;5115486;28;19950;-65
2021/12/25 05:30:53;;;;;;;;;;;11.60;64.80;;;;;;5115493;28;19951;-65
2021/12/25 05:33:19;;;;;;;;;;;11.60;64.80;;;;;;5115413;28;20009;-65
2021/12/25 05:35:45;;;;;;;;;;;11.60;64.80;;;;;;5115407;28;19908;-65
2021/12/25 05:38:14;;;;;;;;;;;11.50;64.80;;;;;;5115356;28;19930;-65
2021/12/25 05:40:44;;;;;;;;;;;11.50;64.90;;;;;;5115305;28;19904;-65
2021/12/25 05:43:09;;;;;;;;;;;11.50;65.00;;;;;;5115248;28;20002;-65
2021/12/25 05:45:35;;;;;;;;;;;11.50;65.10;;;;;;5115545;28;19976;-65
2021/12/25 05:48:01;;;;;;;;;;;11.50;65.20;;;;;;5115119;28;19908;-65
2021/12/25 05:50:26;;;;;;;;;;;11.50;65.30;;;;;;5115053;28;19994;-64
2021/12/25 05:52:55;;;;;;;;;;;11.40;65.30;;;;;;5115133;27;19908;-65
2021/12/25 05:55:22;;;;;;;;;;;11.40;65.30;;;;;;5115083;28;20033;-65
2021/12/25 05:57:47;;;;;;;;;;;11.40;65.40;;;;;;5115014;28;19907;-65
2021/12/25 06:00:13;;;;;;;;;;;11.40;65.30;;;;;;5114889;28;19915;-65
2021/12/25 06:02:38;;;;;;;;;;;11.40;65.30;;;;;;5114854;28;19964;-65
2021/12/25 06:05:06;;;;;;;;;;;11.40;65.30;;;;;;5114778;28;19953;-65
2021/12/25 06:07:32;;;;;;;;;;;11.40;65.30;;;;;;5114808;28;19912;-65
2021/12/25 06:09:57;;;;;;;;;;;11.40;65.40;;;;;;5114719;28;19914;-65
2021/12/25 06:12:24;;;;;;;;;;;11.40;65.40;;;;;;5114514;27;19964;-65
2021/12/25 06:14:51;;;;;;;;;;;11.40;65.40;;;;;;5114354;28;19915;-65
2021/12/25 06:17:17;;;;;;;;;;;11.40;65.40;;;;;;5114566;28;19916;-65
2021/12/25 06:19:42;;;;;;;;;;;11.40;65.40;;;;;;5114470;28;20630;-65
2021/12/25 06:22:08;;;;;;;;;;;11.40;65.40;;;;;;5114417;28;20349;-65
2021/12/25 06:24:34;;;;;;;;;;;11.40;65.40;;;;;;5114424;28;19973;-65
2021/12/25 06:26:59;;;;;;;;;;;11.30;65.40;;;;;;5113047;28;19908;-65
2021/12/25 06:29:25;;;;;;;;;;;11.30;65.40;;;;;;5114372;28;19915;-65
2021/12/25 06:31:52;;;;;;;;;;;11.30;65.50;;;;;;5114250;28;19912;-65
2021/12/25 06:34:18;;;;;;;;;;;11.40;65.60;;;;;;5114254;28;20277;-65
2021/12/25 06:36:44;;;;;;;;;;;11.40;65.60;;;;;;5112917;28;19952;-65
2021/12/25 06:39:15;;;;;;;;;;;11.30;65.60;;;;;;5114165;28;19908;-65
2021/12/25 06:41:41;;;;;;;;;;;11.40;65.70;;;;;;5114171;28;19908;-65
2021/12/25 06:44:06;;;;;;;;;;;11.40;65.70;;;;;;5114218;28;19908;-65
2021/12/25 06:46:32;;;;;;;;;;;11.40;65.60;;;;;;5114104;28;19915;-65
2021/12/25 06:48:57;;;;;;;;;;;11.40;65.50;;;;;;5114073;28;19908;-65
2021/12/25 06:51:23;;;;;;;;;;;11.40;65.40;;;;;;5114050;28;19962;-65
2021/12/25 06:53:49;;;;;;;;;;;11.40;65.40;;;;;;5114098;28;19914;-65
2021/12/25 06:56:15;;;;;;;;;;;11.40;65.50;;;;;;5113770;28;20110;-65
2021/12/25 06:58:41;;;;;;;;;;;11.40;65.50;;;;;;5113904;28;19914;-65
2021/12/25 07:01:06;;;;;;;;;;;11.40;65.60;;;;;;5113530;28;19908;-65
2021/12/25 07:03:32;;;;;;;;;;;11.40;65.60;;;;;;5113894;28;19911;-65
2021/12/25 07:05:57;;;;;;;;;;;11.40;65.60;;;;;;5113823;28;19908;-65
2021/12/25 07:08:23;;;;;;;;;;;11.40;65.60;;;;;;5113841;28;19908;-65
2021/12/25 07:10:49;;;;;;;;;;;11.40;65.60;;;;;;5113658;28;19951;-66
2021/12/25 07:13:19;;;;;;;;;;;11.40;65.60;;;;;;5113793;28;19908;-65
2021/12/25 07:15:45;;;;;;;;;;;11.40;65.60;;;;;;5113500;28;19924;-65
2021/12/25 07:18:11;;;;;;;;;;;11.40;65.70;;;;;;5113662;28;19912;-66
2021/12/25 07:20:36;;;;;;;;;;;11.50;65.80;;;;;;5113532;28;19911;-65
2021/12/25 07:23:02;;;;;;;;;;;11.50;65.90;;;;;;5113568;28;19907;-65
2021/12/25 07:25:27;;;;;;;;;;;11.50;65.90;;;;;;5113493;28;20415;-66
2021/12/25 07:27:53;;;;;;;;;;;11.50;65.90;;;;;;5113525;28;19949;-66
2021/12/25 07:30:19;;;;;;;;;;;11.60;65.90;;;;;;5113500;28;19904;-65
2021/12/25 07:32:44;;;;;;;;;;;11.60;65.90;;;;;;5113446;28;19916;-65
2021/12/25 07:35:10;;;;;;;;;;;11.60;65.90;;;;;;5113517;28;19908;-65
2021/12/25 07:37:36;;;;;;;;;;;11.60;65.90;;;;;;5112202;28;19908;-65
2021/12/25 07:40:04;;;;;;;;;;;11.60;65.80;;;;;;5113457;28;19915;-66
2021/12/25 07:42:30;;;;;;;;;;;11.60;65.70;;;;;;5113338;28;19952;-65
2021/12/25 07:45:02;;;;;;;;;;;11.60;65.70;;;;;;5113340;28;19908;-65
2021/12/25 07:47:28;;;;;;;;;;;11.60;65.80;;;;;;5112043;28;19911;-65
2021/12/25 07:49:56;;;;;;;;;;;11.70;66.00;;;;;;5113352;28;20367;-65
2021/12/25 07:52:23;;;;;;;;;;;11.70;66.00;;;;;;5112005;28;19950;-65
2021/12/25 07:54:48;;;;;;;;;;;11.70;66.00;;;;;;5113316;28;19908;-66
2021/12/25 07:57:14;;;;;;;;;;;11.70;66.00;;;;;;5113466;28;19908;-66
2021/12/25 07:59:39;;;;;;;;;;;11.70;66.10;;;;;;5113449;28;19977;-65
2021/12/25 08:02:05;;;;;;;;;;;11.80;66.10;;;;;;5113303;28;20357;-65
2021/12/25 08:04:31;;;;;;;;;;;11.80;66.10;;;;;;5113394;28;19908;-66
2021/12/25 08:06:56;;;;;;;;;;;11.90;66.10;;;;;;5113093;28;19908;-65
2021/12/25 08:09:28;;;;;;;;;;;11.80;66.10;;;;;;5112957;28;19944;-65
2021/12/25 08:11:58;;;;;;;;;;;11.90;66.20;;;;;;5113011;28;19911;-65
2021/12/25 08:14:25;;;;;;;;;;;11.90;66.20;;;;;;5116875;28;20337;-66
2021/12/25 08:16:53;;;;;;;;;;;11.90;66.20;;;;;;5116717;28;19945;-65
2021/12/25 08:19:19;;;;;;;;;;;11.90;66.20;;;;;;5117189;28;20267;-65
2021/12/25 08:21:44;;;;;;;;;;;12.00;66.40;;;;;;5116780;28;19912;-65
2021/12/25 08:24:10;;;;;;;;;;;12.00;66.40;;;;;;5115460;28;20436;-65
2021/12/25 08:26:36;;;;;;;;;;;12.00;66.30;;;;;;5115416;28;19908;-65
2021/12/25 08:29:02;;;;;;;;;;;12.00;66.30;;;;;;5116581;28;19915;-66
2021/12/25 08:31:28;;;;;;;;;;;12.10;66.40;;;;;;5116469;28;19912;-66
2021/12/25 08:33:54;;;;;;;;;;;12.10;66.40;;;;;;5115267;28;19915;-66
2021/12/25 08:36:19;;;;;;;;;;;12.10;66.40;;;;;;5116529;28;19951;-65
2021/12/25 08:38:45;;;;;;;;;;;12.20;66.50;;;;;;5116504;28;20365;-65
2021/12/25 08:41:10;;;;;;;;;;;12.20;66.50;;;;;;5116289;28;19904;-66
2021/12/25 08:43:45;;;;;;;;;;;12.20;66.40;;;;;;5116322;28;19915;-65
2021/12/25 08:46:16;;;;;;;;;;;12.30;66.40;;;;;;5115027;28;20003;-65
2021/12/25 08:48:42;;;;;;;;;;;12.30;66.30;;;;;;5116234;28;19904;-66
2021/12/25 08:51:08;;;;;;;;;;;12.30;66.20;;;;;;5116146;28;19912;-65
2021/12/25 08:53:34;;;;;;;;;;;12.30;66.20;;;;;;5116188;28;19930;-65
2021/12/25 08:56:00;;;;;;;;;;;12.30;66.10;;;;;;5116168;28;19954;-66
2021/12/25 08:58:27;;;;;;;;;;;12.30;66.10;;;;;;5116008;28;19935;-66
2021/12/25 09:00:57;;;;;;;;;;;12.30;66.20;;;;;;5116072;28;19908;-66
2021/12/25 09:03:25;;;;;;;;;;;12.30;66.20;;;;;;5116275;28;19951;-65
2021/12/25 09:05:57;;;;;;;;;;;12.30;66.20;;;;;;5115915;28;20003;-66
2021/12/25 09:08:23;;;;;;;;;;;12.30;66.20;;;;;;5115714;28;19995;-65
2021/12/25 09:10:49;;;;;;;;;;;12.40;66.30;;;;;;5115764;28;20037;-65
2021/12/25 09:13:15;;;;;;;;;;;12.40;66.30;;;;;;5115771;28;19954;-66
2021/12/25 09:15:40;;;;;;;;;;;12.40;66.40;;;;;;5115538;28;19982;-66
2021/12/25 09:18:06;;;;;;;;;;;12.50;66.40;;;;;;5114336;28;19907;-65
2021/12/25 09:20:32;;;;;;;;;;;12.50;66.30;;;;;;5115622;28;19903;-66
2021/12/25 09:22:57;;;;;;;;;;;12.50;66.20;;;;;;5115159;28;20375;-65
2021/12/25 09:25:24;;;;;;;;;;;12.50;66.30;;;;;;5115511;28;19911;-66
2021/12/25 09:27:50;;;;;;;;;;;12.50;66.30;;;;;;5115478;28;19908;-66
2021/12/25 09:30:16;;;;;;;;;;;12.50;66.30;;;;;;5115455;28;20253;-66
2021/12/25 09:32:42;;;;;;;;;;;12.60;66.40;;;;;;5115270;28;20006;-65
2021/12/25 09:35:08;;;;;;;;;;;12.60;66.20;;;;;;5115360;28;20390;-66
2021/12/25 09:37:33;;;;;;;;;;;12.60;66.20;;;;;;5115230;28;20396;-66
2021/12/25 09:40:00;;;;;;;;;;;12.60;66.20;;;;;;5115238;28;19908;-66
2021/12/25 09:42:26;;;;;;;;;;;12.60;66.30;;;;;;5115280;28;20040;-66
2021/12/25 09:44:52;;;;;;;;;;;12.70;66.40;;;;;;5113979;28;19908;-66
2021/12/25 09:47:18;;;;;;;;;;;12.70;66.50;;;;;;5115165;28;19908;-66
2021/12/25 09:49:43;;;;;;;;;;;12.70;66.50;;;;;;5115170;28;19908;-66
2021/12/25 09:52:09;;;;;;;;;;;12.70;66.40;;;;;;5115018;28;20466;-66
2021/12/25 09:54:34;;;;;;;;;;;12.80;66.40;;;;;;5114992;28;19908;-66
2021/12/25 09:57:00;;;;;;;;;;;12.80;66.30;;;;;;5114930;28;19998;-66
2021/12/25 09:59:26;;;;;;;;;;;12.80;66.20;;;;;;5114843;28;19908;-67
2021/12/25 10:01:53;;;;;;;;;;;12.80;65.90;;;;;;5114929;28;19915;-66
2021/12/25 10:04:45;;;;;;;;;;;12.80;65.80;;;;;;5114838;28;20314;-66
2021/12/25 10:07:22;;;;;;;;;;;12.70;65.70;;;;;;5111603;28;19962;-66
2021/12/25 10:10:00;;;;;;;;;;;12.70;65.80;;;;;;5114708;28;19959;-65
2021/12/25 10:12:27;;;;;;;;;;;12.70;66.00;;;;;;5114553;28;19912;-65
2021/12/25 10:14:54;;;;;;;;;;;12.80;66.20;;;;;;5114246;28;19908;-66
2021/12/25 10:17:21;;;;;;;;;;;12.80;66.20;;;;;;5114486;28;19916;-65
2021/12/25 10:20:07;;;;;;;;;;;12.80;66.20;;;;;;5114487;28;20348;-65
2021/12/25 10:22:33;;;;;;;;;;;12.80;66.40;;;;;;5114528;28;19946;-65
2021/12/25 10:25:06;;;;;;;;;;;12.90;66.60;;;;;;5114348;28;19908;-65
2021/12/25 10:27:31;;;;;;;;;;;13.00;66.80;;;;;;5114351;28;20388;-65
2021/12/25 10:30:03;;;;;;;;;;;13.00;66.80;;;;;;5112910;28;19933;-65
2021/12/25 10:32:29;;;;;;;;;;;13.10;66.90;;;;;;5114056;28;19912;-65
2021/12/25 10:34:54;;;;;;;;;;;13.20;66.80;;;;;;5113512;28;20018;-65
2021/12/25 10:37:21;;;;;;;;;;;13.20;66.60;;;;;;5113998;28;19911;-65
2021/12/25 10:39:47;;;;;;;;;;;13.30;66.50;;;;;;5114091;28;19994;-65
2021/12/25 10:42:20;;;;;;;;;;;13.30;66.40;;;;;;5114048;28;19904;-65
2021/12/25 10:44:50;;;;;;;;;;;13.30;66.40;;;;;;5113942;28;19961;-65
2021/12/25 10:47:17;;;;;;;;;;;13.30;66.20;;;;;;5113838;28;20000;-65
2021/12/25 10:49:45;;;;;;;;;;;13.30;66.00;;;;;;5113830;28;19907;-65
2021/12/25 10:52:11;;;;;;;;;;;13.30;65.90;;;;;;5113815;27;19919;-65
2021/12/25 10:54:39;;;;;;;;;;;13.30;65.80;;;;;;5113760;28;19908;-65
2021/12/25 10:57:05;;;;;;;;;;;13.30;65.70;;;;;;5113673;28;19908;-65
2021/12/25 10:59:49;;;;;;;;;;;13.40;65.70;;;;;;5113730;28;19907;-65
2021/12/25 11:02:29;;;;;;;;;;;13.30;65.60;;;;;;5112645;28;20280;-66
2021/12/25 11:04:55;;;;;;;;;;;13.30;65.60;;;;;;5113559;28;19957;-65
2021/12/25 11:07:21;;;;;;;;;;;13.30;65.60;;;;;;5113634;28;20329;-65
2021/12/25 11:10:05;;;;;;;;;;;13.30;65.60;;;;;;5113607;28;19990;-65
2021/12/25 11:12:31;;;;;;;;;;;13.30;65.60;;;;;;5113526;28;19912;-66
2021/12/25 11:15:15;;;;;;;;;;;13.30;65.70;;;;;;5113253;28;20003;-65
2021/12/25 11:17:42;;;;;;;;;;;13.30;65.80;;;;;;5113529;28;19947;-65
2021/12/25 11:20:17;;;;;;;;;;;13.30;65.70;;;;;;5113688;28;19908;-65
2021/12/25 11:22:50;;;;;;;;;;;13.30;65.70;;;;;;5113553;28;19908;-66
2021/12/25 11:25:16;;;;;;;;;;;13.40;65.70;;;;;;5113524;28;19908;-65
2021/12/25 11:27:43;;;;;;;;;;;13.40;65.60;;;;;;5113521;28;19908;-65
2021/12/25 11:30:08;;;;;;;;;;;13.40;65.60;;;;;;5113453;28;19908;-65
2021/12/25 11:32:34;;;;;;;;;;;13.40;65.30;;;;;;5113332;28;19942;-65
2021/12/25 11:35:00;;;;;;;;;;;13.40;65.10;;;;;;5113332;28;19911;-64
2021/12/25 11:37:26;;;;;;;;;;;13.30;65.00;;;;;;5113323;28;19911;-67
2021/12/25 11:39:53;;;;;;;;;;;13.30;65.00;;;;;;5113261;28;19915;-65
2021/12/25 11:42:19;;;;;;;;;;;13.30;65.00;;;;;;5113290;28;19915;-65
2021/12/25 11:44:50;;;;;;;;;;;13.30;65.00;;;;;;5112046;28;19985;-65
2021/12/25 11:47:29;;;;;;;;;;;13.30;64.90;;;;;;5115843;28;20384;-66
2021/12/25 11:49:55;;;;;;;;;;;13.30;64.70;;;;;;5117455;28;20356;-65
2021/12/25 11:52:28;;;;;;;;;;;13.20;64.50;;;;;;5116022;28;19912;-66
2021/12/25 11:57:48;;;;;;;;;;;13.20;64.60;;;;;;5117520;28;20337;-66
2021/12/25 12:00:14;;;;;;;;;;;13.10;64.50;;;;;;5117256;27;19908;-65
2021/12/25 12:02:41;;;;;;;;;;;13.10;64.50;;;;;;5117059;28;19904;-66
2021/12/25 12:05:35;;;;;;;;;;;13.10;64.50;;;;;;5117153;28;19908;-66
2021/12/25 12:08:06;;;;;;;;;;;13.10;64.30;;;;;;5098237;28;19904;-65
2021/12/25 12:10:44;;;;;;;;;;;13.00;64.20;;;;;;5116877;28;19908;-66
2021/12/25 12:13:35;;;;;;;;;;;13.00;64.20;;;;;;5116938;28;20328;-65
2021/12/25 12:16:03;;;;;;;;;;;13.00;64.20;;;;;;5113553;28;19919;-66
2021/12/25 12:18:33;;;;;;;;;;;13.00;64.20;;;;;;5116861;28;20045;-66
2021/12/25 12:21:12;;;;;;;;;;;12.90;64.10;;;;;;5116849;28;19908;-66
2021/12/25 12:26:42;;;;;;;;;;;12.90;63.90;;;;;;5116716;28;19931;-65
2021/12/25 12:29:07;;;;;;;;;;;12.80;63.60;;;;;;5116685;28;19908;-65
2021/12/25 12:31:40;;;;;;;;;;;12.70;63.30;;;;;;5114842;28;20242;-65
2021/12/25 12:34:24;;;;;;;;;;;12.70;63.40;;;;;;5116566;28;19954;-65
2021/12/25 12:36:50;;;;;;;;;;;12.60;63.50;;;;;;5116406;28;19915;-66
2021/12/25 12:39:18;;;;;;;;;;;12.60;63.50;;;;;;5116434;28;19912;-66
2021/12/25 12:41:51;;;;;;;;;;;12.60;63.50;;;;;;5116512;28;19915;-65
2021/12/25 12:44:30;;;;;;;;;;;12.50;63.50;;;;;;5116389;28;19916;-65
2021/12/25 12:46:58;;;;;;;;;;;12.50;63.50;;;;;;5116353;28;19912;-65
2021/12/25 12:49:32;;;;;;;;;;;12.40;63.40;;;;;;5116342;28;19908;-66
2021/12/25 12:52:13;;;;;;;;;;;12.40;63.30;;;;;;5116304;28;19911;-65
2021/12/25 12:54:39;;;;;;;;;;;12.40;63.20;;;;;;5116242;28;19908;-65
2021/12/25 12:57:05;;;;;;;;;;;12.30;63.00;;;;;;5114786;28;19915;-65
2021/12/25 12:59:43;;;;;;;;;;;12.30;62.70;;;;;;5114161;28;19986;-65
2021/12/25 13:02:10;;;;;;;;;;;12.20;62.60;;;;;;5115989;28;19908;-65
2021/12/25 13:04:42;;;;;;;;;;;12.10;62.50;;;;;;5116094;28;19915;-65
2021/12/25 13:07:12;;;;;;;;;;;12.10;62.70;;;;;;5116025;28;19912;-65
2021/12/25 13:09:43;;;;;;;;;;;12.10;62.80;;;;;;5115934;28;19953;-65
2021/12/25 13:12:20;;;;;;;;;;;12.00;62.90;;;;;;5115784;28;19915;-65
2021/12/25 13:14:56;;;;;;;;;;;12.00;62.80;;;;;;5115829;28;19908;-65
2021/12/25 13:17:22;;;;;;;;;;;12.00;62.80;;;;;;5115842;28;19940;-65
2021/12/25 13:19:47;;;;;;;;;;;11.90;62.60;;;;;;5115752;28;19911;-66
2021/12/25 13:22:13;;;;;;;;;;;11.90;62.70;;;;;;5115638;28;19911;-65
2021/12/25 13:24:39;;;;;;;;;;;11.90;62.80;;;;;;5115615;28;20277;-65
2021/12/25 13:27:05;;;;;;;;;;;11.90;62.90;;;;;;5115855;28;20366;-65
2021/12/25 13:29:31;;;;;;;;;;;11.90;62.90;;;;;;5115589;28;20002;-66
2021/12/25 13:31:57;;;;;;;;;;;11.90;62.90;;;;;;5114000;28;20254;-65
2021/12/25 13:34:23;;;;;;;;;;;11.90;63.00;;;;;;5115355;28;19908;-66
2021/12/25 13:36:49;;;;;;;;;;;11.90;62.90;;;;;;5115378;28;19908;-65
2021/12/25 13:39:16;;;;;;;;;;;11.80;62.80;;;;;;5115248;28;20399;-65
2021/12/25 13:41:46;;;;;;;;;;;11.80;62.70;;;;;;5115272;28;19994;-66
2021/12/25 13:44:17;;;;;;;;;;;11.80;62.70;;;;;;5115229;28;20333;-65
2021/12/25 13:46:49;;;;;;;;;;;11.80;62.70;;;;;;5115153;28;19912;-65
2021/12/25 13:49:30;;;;;;;;;;;11.80;62.80;;;;;;5113750;28;20288;-66
2021/12/25 13:51:57;;;;;;;;;;;11.80;62.80;;;;;;5115060;28;20018;-65
2021/12/25 13:54:22;;;;;;;;;;;11.70;62.70;;;;;;5115014;28;19912;-65
2021/12/25 13:56:49;;;;;;;;;;;11.70;62.70;;;;;;5114981;27;19914;-65
2021/12/25 13:59:15;;;;;;;;;;;11.70;62.70;;;;;;5113439;28;20365;-65
2021/12/25 14:01:41;;;;;;;;;;;11.70;62.60;;;;;;5114806;28;19945;-65
2021/12/25 14:04:10;;;;;;;;;;;11.70;62.50;;;;;;5113439;28;19992;-65
2021/12/25 14:06:37;;;;;;;;;;;11.70;62.30;;;;;;5114744;28;19908;-66
2021/12/25 14:09:05;;;;;;;;;;;11.60;62.10;;;;;;5114379;28;19915;-65
2021/12/25 14:11:32;;;;;;;;;;;11.60;62.10;;;;;;5113637;28;19999;-66
2021/12/25 14:13:57;;;;;;;;;;;11.60;61.90;;;;;;5114524;28;19915;-65
2021/12/25 14:16:23;;;;;;;;;;;11.50;61.50;;;;;;5114200;28;19915;-65
2021/12/25 14:18:49;;;;;;;;;;;11.40;61.30;;;;;;5114477;28;19916;-66
2021/12/25 14:21:19;;;;;;;;;;;11.30;61.10;;;;;;5114394;28;19904;-66
2021/12/25 14:23:46;;;;;;;;;;;11.20;61.00;;;;;;5114387;28;19914;-66
2021/12/25 14:26:18;;;;;;;;;;;11.20;61.10;;;;;;5114411;27;19904;-65
2021/12/25 14:28:43;;;;;;;;;;;11.10;61.00;;;;;;5114337;28;19915;-65
2021/12/25 14:31:09;;;;;;;;;;;11.10;61.00;;;;;;5114231;28;19916;-65
2021/12/25 14:33:38;;;;;;;;;;;11.00;61.00;;;;;;5114178;28;20379;-65
2021/12/25 14:36:11;;;;;;;;;;;10.90;61.00;;;;;;5114173;28;19912;-65
2021/12/25 14:38:41;;;;;;;;;;;10.90;60.80;;;;;;5114155;28;19953;-65
2021/12/25 14:41:08;;;;;;;;;;;10.80;60.80;;;;;;5112841;28;19908;-65
2021/12/25 14:43:34;;;;;;;;;;;10.80;61.00;;;;;;5114118;28;20369;-65
2021/12/25 14:46:00;;;;;;;;;;;10.70;61.10;;;;;;5114157;28;20803;-65
2021/12/25 14:48:26;;;;;;;;;;;10.70;61.20;;;;;;5114142;28;19966;-65
2021/12/25 14:50:56;;;;;;;;;;;10.70;61.10;;;;;;5114014;28;19951;-65
2021/12/25 14:53:21;;;;;;;;;;;10.60;61.00;;;;;;5113911;28;19950;-65
2021/12/25 14:55:49;;;;;;;;;;;10.50;61.80;;;;;;5113965;28;20697;-65
2021/12/25 14:58:17;;;;;;;;;;;10.50;61.10;;;;;;5113745;28;19908;-65
2021/12/25 15:00:43;;;;;;;;;;;10.50;61.40;;;;;;5113849;28;19915;-65
2021/12/25 15:03:13;;;;;;;;;;;10.40;61.40;;;;;;5113886;28;19908;-65
2021/12/25 15:05:40;;;;;;;;;;;10.40;61.60;;;;;;5114114;28;19915;-65
2021/12/25 15:08:16;;;;;;;;;;;10.40;61.70;;;;;;5112583;28;19930;-65
2021/12/25 15:10:42;;;;;;;;;;;10.40;61.90;;;;;;5113781;28;19908;-65
2021/12/25 15:13:15;;;;;;;;;;;10.30;61.80;;;;;;5113627;28;19919;-65
2021/12/25 15:15:54;;;;;;;;;;;10.30;61.80;;;;;;5113427;28;20324;-65
2021/12/25 15:18:40;;;;;;;;;;;10.30;61.80;;;;;;5113631;28;20368;-65
2021/12/25 15:21:15;;;;;;;;;;;10.30;61.70;;;;;;5113196;28;19908;-65
2021/12/25 15:23:41;;;;;;;;;;;10.20;61.60;;;;;;5113756;28;20245;-66
2021/12/25 15:26:10;;;;;;;;;;;10.20;61.50;;;;;;5113355;28;19915;-66
2021/12/25 15:28:37;;;;;;;;;;;10.20;61.50;;;;;;5113456;28;20253;-65
2021/12/25 15:31:12;;;;;;;;;;;10.10;61.50;;;;;;5113385;28;19998;-66
2021/12/25 15:33:49;;;;;;;;;;;10.10;61.60;;;;;;5113306;28;19915;-65
2021/12/25 15:36:15;;;;;;;;;;;10.10;61.50;;;;;;5113326;28;19947;-65
2021/12/25 15:38:40;;;;;;;;;;;10.10;61.50;;;;;;5113363;28;19951;-65
2021/12/25 15:41:07;;;;;;;;;;;10.00;61.50;;;;;;5113327;28;19908;-66
2021/12/25 15:43:33;;;;;;;;;;;10.00;61.40;;;;;;5113297;28;19908;-65
2021/12/25 15:46:02;;;;;;;;;;;9.90;61.20;;;;;;5113289;28;20007;-65